sensor_id;sensor_type;location;lat;lon;timestamp;temperature;humidity
19586;DHT22;9939;49.246;9.106;2022-10-16T00:02:16;15.50;99.90
19586;DHT22;9939;49.246;9.106;2022-10-16T00:04:44;15.50;99.90
19586;DHT22;9939;49.246;9.106;2022-10-16T00:07:11;15.60;99.90
19586;DHT22;9939;49.246;9.106;2022-10-16T00:09:38;15.50;99.90
19586;DHT22;9939;49.246;9.106;2022-10-16T00:12:05;15.50;99.90
19586;DHT22;9939;49.246;9.106;2022-10-16T00:14:33;15.30;99.90
19586;DHT22;9939;49.246;9.106;2022-10-16T00:17:01;15.10;99.90
19586;DHT22;9939;49.246;9.106;2022-10-16T00:19:28;15.20;99.90
19586;DHT22;9939;49.246;9.106;2022-10-16T00:21:55;15.20;99.90
19586;DHT22;9939;49.246;9.106;2022-10-16T00:24:22;15.30;99.90
19586;DHT22;9939;49.246;9.106;2022-10-16T00:26:50;15.40;99.90
19586;DHT22;9939;49.246;9.106;2022-10-16T00:29:17;15.40;99.90
19586;DHT22;9939;49.246;9.106;2022-10-16T00:31:44;15.30;99.90
19586;DHT22;9939;49.246;9.106;2022-10-16T00:34:12;15.30;99.90
19586;DHT22;9939;49.246;9.106;2022-10-16T00:36:39;15.50;99.90
19586;DHT22;9939;49.246;9.106;2022-10-16T00:39:06;15.50;99.90
19586;DHT22;9939;49.246;9.106;2022-10-16T00:41:33;15.50;99.90
19586;DHT22;9939;49.246;9.106;2022-10-16T00:44:03;15.60;99.90
19586;DHT22;9939;49.246;9.106;2022-10-16T00:46:39;15.60;99.90
19586;DHT22;9939;49.246;9.106;2022-10-16T00:49:15;15.60;99.90
19586;DHT22;9939;49.246;9.106;2022-10-16T00:51:47;15.60;99.90
19586;DHT22;9939;49.246;9.106;2022-10-16T00:54:28;15.50;99.90
19586;DHT22;9939;49.246;9.106;2022-10-16T00:56:59;15.50;99.90
19586;DHT22;9939;49.246;9.106;2022-10-16T00:59:30;15.40;99.90
19586;DHT22;9939;49.246;9.106;2022-10-16T01:01:58;15.40;99.90
19586;DHT22;9939;49.246;9.106;2022-10-16T01:04:26;15.40;99.90
19586;DHT22;9939;49.246;9.106;2022-10-16T01:07:20;15.50;99.90
19586;DHT22;9939;49.246;9.106;2022-10-16T01:16:05;15.60;99.90
19586;DHT22;9939;49.246;9.106;2022-10-16T01:18:22;15.70;99.90
19586;DHT22;9939;49.246;9.106;2022-10-16T01:20:59;15.70;99.90
19586;DHT22;9939;49.246;9.106;2022-10-16T01:29:00;15.70;99.90
19586;DHT22;9939;49.246;9.106;2022-10-16T01:31:33;15.70;99.90
19586;DHT22;9939;49.246;9.106;2022-10-16T01:34:12;15.70;99.90
19586;DHT22;9939;49.246;9.106;2022-10-16T01:36:56;15.70;99.90
19586;DHT22;9939;49.246;9.106;2022-10-16T01:39:30;15.70;99.90
19586;DHT22;9939;49.246;9.106;2022-10-16T01:42:04;15.90;99.90
19586;DHT22;9939;49.246;9.106;2022-10-16T01:44:33;15.90;99.90
19586;DHT22;9939;49.246;9.106;2022-10-16T01:47:04;15.80;99.90
19586;DHT22;9939;49.246;9.106;2022-10-16T01:49:34;15.90;99.90
19586;DHT22;9939;49.246;9.106;2022-10-16T01:52:07;15.90;99.90
19586;DHT22;9939;49.246;9.106;2022-10-16T01:54:37;15.90;99.90
19586;DHT22;9939;49.246;9.106;2022-10-16T01:57:07;15.90;99.90
19586;DHT22;9939;49.246;9.106;2022-10-16T01:59:40;15.90;99.90
19586;DHT22;9939;49.246;9.106;2022-10-16T02:02:10;15.80;99.90
19586;DHT22;9939;49.246;9.106;2022-10-16T02:04:44;15.80;99.90
19586;DHT22;9939;49.246;9.106;2022-10-16T02:07:12;15.80;99.90
19586;DHT22;9939;49.246;9.106;2022-10-16T02:09:41;15.70;99.90
19586;DHT22;9939;49.246;9.106;2022-10-16T02:12:29;15.70;99.90
19586;DHT22;9939;49.246;9.106;2022-10-16T02:14:58;15.80;99.90
19586;DHT22;9939;49.246;9.106;2022-10-16T02:17:26;15.80;99.90
19586;DHT22;9939;49.246;9.106;2022-10-16T02:19:54;15.80;99.90
19586;DHT22;9939;49.246;9.106;2022-10-16T02:22:49;15.80;99.90
19586;DHT22;9939;49.246;9.106;2022-10-16T02:25:18;15.70;99.90
19586;DHT22;9939;49.246;9.106;2022-10-16T02:30:30;15.90;99.90
19586;DHT22;9939;49.246;9.106;2022-10-16T02:33:00;15.80;99.90
19586;DHT22;9939;49.246;9.106;2022-10-16T02:35:30;15.80;99.90
19586;DHT22;9939;49.246;9.106;2022-10-16T02:37:59;15.80;99.90
19586;DHT22;9939;49.246;9.106;2022-10-16T02:40:26;15.90;99.90
19586;DHT22;9939;49.246;9.106;2022-10-16T02:42:55;15.90;99.90
19586;DHT22;9939;49.246;9.106;2022-10-16T02:45:23;16.00;99.90
19586;DHT22;9939;49.246;9.106;2022-10-16T02:47:51;15.90;99.90
19586;DHT22;9939;49.246;9.106;2022-10-16T02:50:18;15.80;99.90
19586;DHT22;9939;49.246;9.106;2022-10-16T02:52:45;16.10;99.90
19586;DHT22;9939;49.246;9.106;2022-10-16T02:55:13;16.00;99.90
19586;DHT22;9939;49.246;9.106;2022-10-16T02:57:40;16.00;99.90
19586;DHT22;9939;49.246;9.106;2022-10-16T03:00:09;15.80;99.90
19586;DHT22;9939;49.246;9.106;2022-10-16T03:02:37;15.70;99.90
19586;DHT22;9939;49.246;9.106;2022-10-16T03:05:04;15.90;99.90
19586;DHT22;9939;49.246;9.106;2022-10-16T03:07:31;15.90;99.90
19586;DHT22;9939;49.246;9.106;2022-10-16T03:09:59;15.90;99.90
19586;DHT22;9939;49.246;9.106;2022-10-16T03:12:27;15.80;99.90
19586;DHT22;9939;49.246;9.106;2022-10-16T03:14:55;15.70;99.90
19586;DHT22;9939;49.246;9.106;2022-10-16T03:17:24;15.70;99.90
19586;DHT22;9939;49.246;9.106;2022-10-16T03:19:52;15.80;99.90
19586;DHT22;9939;49.246;9.106;2022-10-16T03:22:19;15.70;99.90
19586;DHT22;9939;49.246;9.106;2022-10-16T03:24:46;15.70;99.90
19586;DHT22;9939;49.246;9.106;2022-10-16T03:27:13;15.90;99.90
19586;DHT22;9939;49.246;9.106;2022-10-16T03:29:40;16.20;99.90
19586;DHT22;9939;49.246;9.106;2022-10-16T03:32:07;16.00;99.90
19586;DHT22;9939;49.246;9.106;2022-10-16T03:34:34;15.80;99.90
19586;DHT22;9939;49.246;9.106;2022-10-16T03:37:01;15.80;99.90
19586;DHT22;9939;49.246;9.106;2022-10-16T03:39:28;15.70;99.90
19586;DHT22;9939;49.246;9.106;2022-10-16T03:41:55;15.90;99.90
19586;DHT22;9939;49.246;9.106;2022-10-16T03:44:22;15.90;99.90
19586;DHT22;9939;49.246;9.106;2022-10-16T03:46:49;15.80;99.90
19586;DHT22;9939;49.246;9.106;2022-10-16T03:49:16;15.70;99.90
19586;DHT22;9939;49.246;9.106;2022-10-16T03:51:43;15.70;99.90
19586;DHT22;9939;49.246;9.106;2022-10-16T03:54:10;15.60;99.90
19586;DHT22;9939;49.246;9.106;2022-10-16T03:56:38;15.80;99.90
19586;DHT22;9939;49.246;9.106;2022-10-16T03:59:05;15.80;99.90
19586;DHT22;9939;49.246;9.106;2022-10-16T04:01:32;15.70;99.90
19586;DHT22;9939;49.246;9.106;2022-10-16T04:03:59;15.80;99.90
19586;DHT22;9939;49.246;9.106;2022-10-16T04:06:26;15.70;99.90
19586;DHT22;9939;49.246;9.106;2022-10-16T04:08:53;16.10;99.90
19586;DHT22;9939;49.246;9.106;2022-10-16T04:11:20;15.90;99.90
19586;DHT22;9939;49.246;9.106;2022-10-16T04:13:47;15.80;99.90
19586;DHT22;9939;49.246;9.106;2022-10-16T04:16:14;15.70;99.90
19586;DHT22;9939;49.246;9.106;2022-10-16T04:18:41;15.60;99.90
19586;DHT22;9939;49.246;9.106;2022-10-16T04:21:08;15.60;99.90
19586;DHT22;9939;49.246;9.106;2022-10-16T04:23:35;15.60;99.90
19586;DHT22;9939;49.246;9.106;2022-10-16T04:26:03;15.60;99.90
19586;DHT22;9939;49.246;9.106;2022-10-16T04:28:30;15.60;99.90
19586;DHT22;9939;49.246;9.106;2022-10-16T04:30:57;15.70;99.90
19586;DHT22;9939;49.246;9.106;2022-10-16T04:33:24;15.60;99.90
19586;DHT22;9939;49.246;9.106;2022-10-16T04:35:58;15.70;99.90
19586;DHT22;9939;49.246;9.106;2022-10-16T04:38:26;15.70;99.90
19586;DHT22;9939;49.246;9.106;2022-10-16T04:40:53;15.60;99.90
19586;DHT22;9939;49.246;9.106;2022-10-16T04:43:21;15.70;99.90
19586;DHT22;9939;49.246;9.106;2022-10-16T04:45:48;15.60;99.90
19586;DHT22;9939;49.246;9.106;2022-10-16T04:48:18;15.90;99.90
19586;DHT22;9939;49.246;9.106;2022-10-16T04:50:45;15.80;99.90
19586;DHT22;9939;49.246;9.106;2022-10-16T04:53:17;15.80;99.90
19586;DHT22;9939;49.246;9.106;2022-10-16T04:55:44;15.70;99.90
19586;DHT22;9939;49.246;9.106;2022-10-16T04:58:11;15.60;99.90
19586;DHT22;9939;49.246;9.106;2022-10-16T05:00:38;15.70;99.90
19586;DHT22;9939;49.246;9.106;2022-10-16T05:03:05;15.80;99.90
19586;DHT22;9939;49.246;9.106;2022-10-16T05:05:36;15.60;99.90
19586;DHT22;9939;49.246;9.106;2022-10-16T05:08:03;15.50;99.90
19586;DHT22;9939;49.246;9.106;2022-10-16T05:10:30;15.50;99.90
19586;DHT22;9939;49.246;9.106;2022-10-16T05:12:58;15.50;99.90
19586;DHT22;9939;49.246;9.106;2022-10-16T05:15:25;15.50;99.90
19586;DHT22;9939;49.246;9.106;2022-10-16T05:17:53;15.50;99.90
19586;DHT22;9939;49.246;9.106;2022-10-16T05:20:21;15.50;99.90
19586;DHT22;9939;49.246;9.106;2022-10-16T05:22:48;15.50;99.90
19586;DHT22;9939;49.246;9.106;2022-10-16T05:25:15;15.50;99.90
19586;DHT22;9939;49.246;9.106;2022-10-16T05:27:42;15.60;99.90
19586;DHT22;9939;49.246;9.106;2022-10-16T05:30:10;15.50;99.90
19586;DHT22;9939;49.246;9.106;2022-10-16T05:32:38;15.60;99.90
19586;DHT22;9939;49.246;9.106;2022-10-16T05:35:05;15.50;99.90
19586;DHT22;9939;49.246;9.106;2022-10-16T05:37:38;15.50;99.90
19586;DHT22;9939;49.246;9.106;2022-10-16T05:40:06;15.50;99.90
19586;DHT22;9939;49.246;9.106;2022-10-16T05:42:33;15.60;99.90
19586;DHT22;9939;49.246;9.106;2022-10-16T05:45:00;15.60;99.90
19586;DHT22;9939;49.246;9.106;2022-10-16T05:47:27;15.50;99.90
19586;DHT22;9939;49.246;9.106;2022-10-16T05:49:55;15.60;99.90
19586;DHT22;9939;49.246;9.106;2022-10-16T05:52:22;15.70;99.90
19586;DHT22;9939;49.246;9.106;2022-10-16T05:54:49;15.80;99.90
19586;DHT22;9939;49.246;9.106;2022-10-16T05:57:16;15.80;99.90
19586;DHT22;9939;49.246;9.106;2022-10-16T05:59:44;15.80;99.90
19586;DHT22;9939;49.246;9.106;2022-10-16T06:02:16;15.80;99.90
19586;DHT22;9939;49.246;9.106;2022-10-16T06:04:43;15.80;99.90
19586;DHT22;9939;49.246;9.106;2022-10-16T06:07:10;15.70;99.90
19586;DHT22;9939;49.246;9.106;2022-10-16T06:09:37;15.60;99.90
19586;DHT22;9939;49.246;9.106;2022-10-16T06:12:04;15.60;99.90
19586;DHT22;9939;49.246;9.106;2022-10-16T06:14:31;15.50;99.90
19586;DHT22;9939;49.246;9.106;2022-10-16T06:16:58;15.60;99.90
19586;DHT22;9939;49.246;9.106;2022-10-16T06:19:25;15.50;99.90
19586;DHT22;9939;49.246;9.106;2022-10-16T06:21:52;15.50;99.90
19586;DHT22;9939;49.246;9.106;2022-10-16T06:24:19;15.60;99.90
19586;DHT22;9939;49.246;9.106;2022-10-16T06:26:47;15.60;99.90
19586;DHT22;9939;49.246;9.106;2022-10-16T06:29:14;15.60;99.90
19586;DHT22;9939;49.246;9.106;2022-10-16T06:31:41;15.70;99.90
19586;DHT22;9939;49.246;9.106;2022-10-16T06:34:09;15.90;99.90
19586;DHT22;9939;49.246;9.106;2022-10-16T06:36:38;15.80;99.90
19586;DHT22;9939;49.246;9.106;2022-10-16T06:39:06;15.80;99.90
19586;DHT22;9939;49.246;9.106;2022-10-16T06:41:34;15.90;99.90
19586;DHT22;9939;49.246;9.106;2022-10-16T06:44:14;16.20;99.90
19586;DHT22;9939;49.246;9.106;2022-10-16T06:46:41;16.20;99.90
19586;DHT22;9939;49.246;9.106;2022-10-16T06:49:08;16.20;99.90
19586;DHT22;9939;49.246;9.106;2022-10-16T06:51:36;16.10;99.90
19586;DHT22;9939;49.246;9.106;2022-10-16T06:54:09;16.00;99.90
19586;DHT22;9939;49.246;9.106;2022-10-16T06:56:36;16.00;99.90
19586;DHT22;9939;49.246;9.106;2022-10-16T06:59:04;16.00;99.90
19586;DHT22;9939;49.246;9.106;2022-10-16T07:01:31;16.10;99.90
19586;DHT22;9939;49.246;9.106;2022-10-16T07:04:00;16.10;99.90
19586;DHT22;9939;49.246;9.106;2022-10-16T07:06:32;16.00;99.90
19586;DHT22;9939;49.246;9.106;2022-10-16T07:09:02;16.00;99.90
19586;DHT22;9939;49.246;9.106;2022-10-16T07:11:30;16.00;99.90
19586;DHT22;9939;49.246;9.106;2022-10-16T07:13:57;16.00;99.90
19586;DHT22;9939;49.246;9.106;2022-10-16T07:16:29;16.10;99.90
19586;DHT22;9939;49.246;9.106;2022-10-16T07:19:00;16.10;99.90
19586;DHT22;9939;49.246;9.106;2022-10-16T07:21:30;16.10;99.90
19586;DHT22;9939;49.246;9.106;2022-10-16T07:23:59;16.20;99.90
19586;DHT22;9939;49.246;9.106;2022-10-16T07:26:31;16.30;99.90
19586;DHT22;9939;49.246;9.106;2022-10-16T07:28:59;16.50;99.90
19586;DHT22;9939;49.246;9.106;2022-10-16T07:31:28;16.70;99.90
19586;DHT22;9939;49.246;9.106;2022-10-16T07:33:55;16.90;99.90
19586;DHT22;9939;49.246;9.106;2022-10-16T07:36:24;17.00;99.90
19586;DHT22;9939;49.246;9.106;2022-10-16T07:38:51;17.20;99.90
19586;DHT22;9939;49.246;9.106;2022-10-16T07:41:24;17.30;99.90
19586;DHT22;9939;49.246;9.106;2022-10-16T07:43:52;17.30;99.90
19586;DHT22;9939;49.246;9.106;2022-10-16T07:46:21;17.50;99.90
19586;DHT22;9939;49.246;9.106;2022-10-16T07:48:48;17.60;99.90
19586;DHT22;9939;49.246;9.106;2022-10-16T07:51:17;17.80;99.90
19586;DHT22;9939;49.246;9.106;2022-10-16T07:53:45;18.20;99.90
19586;DHT22;9939;49.246;9.106;2022-10-16T07:56:13;18.40;99.90
19586;DHT22;9939;49.246;9.106;2022-10-16T07:58:40;18.10;99.90
19586;DHT22;9939;49.246;9.106;2022-10-16T08:01:10;18.00;99.90
19586;DHT22;9939;49.246;9.106;2022-10-16T08:03:37;18.30;99.90
19586;DHT22;9939;49.246;9.106;2022-10-16T08:06:05;18.20;99.90
19586;DHT22;9939;49.246;9.106;2022-10-16T08:08:31;18.50;99.90
19586;DHT22;9939;49.246;9.106;2022-10-16T08:10:59;18.50;99.90
19586;DHT22;9939;49.246;9.106;2022-10-16T08:13:26;18.30;99.90
19586;DHT22;9939;49.246;9.106;2022-10-16T08:15:54;18.80;99.90
19586;DHT22;9939;49.246;9.106;2022-10-16T08:18:22;19.00;99.90
19586;DHT22;9939;49.246;9.106;2022-10-16T08:20:56;19.40;99.90
19586;DHT22;9939;49.246;9.106;2022-10-16T08:23:24;19.70;99.90
19586;DHT22;9939;49.246;9.106;2022-10-16T08:26:01;19.60;99.90
19586;DHT22;9939;49.246;9.106;2022-10-16T08:28:29;19.60;99.90
19586;DHT22;9939;49.246;9.106;2022-10-16T08:30:56;19.30;99.90
19586;DHT22;9939;49.246;9.106;2022-10-16T08:33:31;19.30;99.90
19586;DHT22;9939;49.246;9.106;2022-10-16T08:35:58;19.10;99.90
19586;DHT22;9939;49.246;9.106;2022-10-16T08:38:25;19.30;99.90
19586;DHT22;9939;49.246;9.106;2022-10-16T08:40:52;19.40;99.90
19586;DHT22;9939;49.246;9.106;2022-10-16T08:46:26;19.70;99.90
19586;DHT22;9939;49.246;9.106;2022-10-16T08:48:59;20.80;99.90
19586;DHT22;9939;49.246;9.106;2022-10-16T08:51:30;20.80;99.90
19586;DHT22;9939;49.246;9.106;2022-10-16T08:54:28;21.30;99.90
19586;DHT22;9939;49.246;9.106;2022-10-16T08:56:57;21.80;99.90
19586;DHT22;9939;49.246;9.106;2022-10-16T08:59:27;21.70;99.90
19586;DHT22;9939;49.246;9.106;2022-10-16T09:01:54;21.40;99.90
19586;DHT22;9939;49.246;9.106;2022-10-16T09:06:58;21.20;99.90
19586;DHT22;9939;49.246;9.106;2022-10-16T09:22:44;22.10;99.90
19586;DHT22;9939;49.246;9.106;2022-10-16T09:25:17;21.70;99.90
19586;DHT22;9939;49.246;9.106;2022-10-16T09:27:47;21.60;99.90
19586;DHT22;9939;49.246;9.106;2022-10-16T09:30:17;22.00;99.90
19586;DHT22;9939;49.246;9.106;2022-10-16T09:32:47;21.40;99.90
19586;DHT22;9939;49.246;9.106;2022-10-16T09:35:24;21.50;99.90
19586;DHT22;9939;49.246;9.106;2022-10-16T09:37:54;22.30;99.90
19586;DHT22;9939;49.246;9.106;2022-10-16T09:40:38;22.30;99.90
19586;DHT22;9939;49.246;9.106;2022-10-16T09:43:21;22.90;99.90
19586;DHT22;9939;49.246;9.106;2022-10-16T09:46:04;23.00;99.90
19586;DHT22;9939;49.246;9.106;2022-10-16T09:48:42;23.10;99.90
19586;DHT22;9939;49.246;9.106;2022-10-16T09:53:57;24.00;99.90
19586;DHT22;9939;49.246;9.106;2022-10-16T09:56:32;23.70;99.90
19586;DHT22;9939;49.246;9.106;2022-10-16T09:59:07;23.40;99.90
19586;DHT22;9939;49.246;9.106;2022-10-16T10:04:12;21.80;99.90
19586;DHT22;9939;49.246;9.106;2022-10-16T10:16:48;28.60;99.90
19586;DHT22;9939;49.246;9.106;2022-10-16T10:19:20;30.90;99.90
19586;DHT22;9939;49.246;9.106;2022-10-16T10:21:48;32.90;99.90
19586;DHT22;9939;49.246;9.106;2022-10-16T10:24:17;31.90;99.90
19586;DHT22;9939;49.246;9.106;2022-10-16T10:26:49;33.20;99.90
19586;DHT22;9939;49.246;9.106;2022-10-16T10:29:26;34.30;99.90
19586;DHT22;9939;49.246;9.106;2022-10-16T10:37:12;33.70;99.90
19586;DHT22;9939;49.246;9.106;2022-10-16T10:39:51;33.60;99.90
19586;DHT22;9939;49.246;9.106;2022-10-16T10:42:40;32.40;99.90
19586;DHT22;9939;49.246;9.106;2022-10-16T10:45:20;31.80;99.90
19586;DHT22;9939;49.246;9.106;2022-10-16T10:48:03;30.30;99.90
19586;DHT22;9939;49.246;9.106;2022-10-16T10:50:47;28.60;99.90
19586;DHT22;9939;49.246;9.106;2022-10-16T11:01:54;27.20;99.90
19586;DHT22;9939;49.246;9.106;2022-10-16T11:07:21;30.90;99.90
19586;DHT22;9939;49.246;9.106;2022-10-16T11:09:53;32.10;99.90
19586;DHT22;9939;49.246;9.106;2022-10-16T11:12:44;31.70;99.90
19586;DHT22;9939;49.246;9.106;2022-10-16T11:17:59;33.90;99.90
19586;DHT22;9939;49.246;9.106;2022-10-16T11:20:30;31.30;99.90
19586;DHT22;9939;49.246;9.106;2022-10-16T11:23:16;32.80;99.90
19586;DHT22;9939;49.246;9.106;2022-10-16T11:25:45;33.30;99.90
19586;DHT22;9939;49.246;9.106;2022-10-16T11:28:58;33.30;99.90
19586;DHT22;9939;49.246;9.106;2022-10-16T11:34:09;34.30;99.90
19586;DHT22;9939;49.246;9.106;2022-10-16T11:37:05;31.70;99.90
19586;DHT22;9939;49.246;9.106;2022-10-16T11:39:32;33.00;99.90
19586;DHT22;9939;49.246;9.106;2022-10-16T11:42:19;33.20;99.90
19586;DHT22;9939;49.246;9.106;2022-10-16T11:45:23;34.10;99.90
19586;DHT22;9939;49.246;9.106;2022-10-16T11:47:48;32.60;99.90
19586;DHT22;9939;49.246;9.106;2022-10-16T11:55:37;32.30;99.90
19586;DHT22;9939;49.246;9.106;2022-10-16T11:58:34;32.00;99.90
19586;DHT22;9939;49.246;9.106;2022-10-16T12:01:17;31.70;99.90
19586;DHT22;9939;49.246;9.106;2022-10-16T12:08:47;29.20;99.90
19586;DHT22;9939;49.246;9.106;2022-10-16T12:16:58;29.40;99.90
19586;DHT22;9939;49.246;9.106;2022-10-16T12:19:29;30.30;99.90
19586;DHT22;9939;49.246;9.106;2022-10-16T12:22:01;30.30;99.90
19586;DHT22;9939;49.246;9.106;2022-10-16T12:27:01;28.80;99.90
19586;DHT22;9939;49.246;9.106;2022-10-16T12:32:03;27.40;99.90
19586;DHT22;9939;49.246;9.106;2022-10-16T12:34:43;26.80;99.90
19586;DHT22;9939;49.246;9.106;2022-10-16T12:39:49;27.00;99.90
19586;DHT22;9939;49.246;9.106;2022-10-16T12:44:54;27.80;99.90
19586;DHT22;9939;49.246;9.106;2022-10-16T12:47:38;27.30;99.90
19586;DHT22;9939;49.246;9.106;2022-10-16T12:50:35;28.90;99.90
19586;DHT22;9939;49.246;9.106;2022-10-16T12:53:17;31.20;99.90
19586;DHT22;9939;49.246;9.106;2022-10-16T12:56:22;32.70;99.90
19586;DHT22;9939;49.246;9.106;2022-10-16T12:59:03;35.30;98.80
19586;DHT22;9939;49.246;9.106;2022-10-16T13:15:29;26.20;99.90
19586;DHT22;9939;49.246;9.106;2022-10-16T13:18:25;25.30;99.90
19586;DHT22;9939;49.246;9.106;2022-10-16T13:30:20;24.20;99.90
19586;DHT22;9939;49.246;9.106;2022-10-16T13:33:06;23.90;99.90
19586;DHT22;9939;49.246;9.106;2022-10-16T13:35:36;23.70;99.90
19586;DHT22;9939;49.246;9.106;2022-10-16T13:38:16;23.50;99.90
19586;DHT22;9939;49.246;9.106;2022-10-16T13:40:51;23.20;99.90
19586;DHT22;9939;49.246;9.106;2022-10-16T13:43:24;23.20;99.90
19586;DHT22;9939;49.246;9.106;2022-10-16T13:46:00;23.00;99.90
19586;DHT22;9939;49.246;9.106;2022-10-16T13:48:36;22.90;99.90
19586;DHT22;9939;49.246;9.106;2022-10-16T13:51:18;22.70;99.90
19586;DHT22;9939;49.246;9.106;2022-10-16T13:53:48;22.60;99.90
19586;DHT22;9939;49.246;9.106;2022-10-16T13:56:21;22.60;99.90
19586;DHT22;9939;49.246;9.106;2022-10-16T13:59:05;22.60;99.90
19586;DHT22;9939;49.246;9.106;2022-10-16T14:01:41;22.70;99.90
19586;DHT22;9939;49.246;9.106;2022-10-16T14:04:13;22.60;99.90
19586;DHT22;9939;49.246;9.106;2022-10-16T14:06:50;22.50;99.90
19586;DHT22;9939;49.246;9.106;2022-10-16T14:09:29;22.50;99.90
19586;DHT22;9939;49.246;9.106;2022-10-16T14:12:09;22.40;99.90
19586;DHT22;9939;49.246;9.106;2022-10-16T14:14:48;22.40;99.90
19586;DHT22;9939;49.246;9.106;2022-10-16T14:17:26;22.50;99.90
19586;DHT22;9939;49.246;9.106;2022-10-16T14:19:59;22.70;99.90
19586;DHT22;9939;49.246;9.106;2022-10-16T14:22:35;22.90;99.90
19586;DHT22;9939;49.246;9.106;2022-10-16T14:28:19;22.90;99.90
19586;DHT22;9939;49.246;9.106;2022-10-16T14:30:58;22.60;99.90
19586;DHT22;9939;49.246;9.106;2022-10-16T14:33:32;22.20;99.90
19586;DHT22;9939;49.246;9.106;2022-10-16T14:36:03;22.30;99.90
19586;DHT22;9939;49.246;9.106;2022-10-16T14:38:32;22.30;99.90
19586;DHT22;9939;49.246;9.106;2022-10-16T14:41:00;22.00;99.90
19586;DHT22;9939;49.246;9.106;2022-10-16T14:46:05;21.70;99.90
19586;DHT22;9939;49.246;9.106;2022-10-16T14:48:39;21.40;99.90
19586;DHT22;9939;49.246;9.106;2022-10-16T14:51:15;21.30;99.90
19586;DHT22;9939;49.246;9.106;2022-10-16T14:53:46;21.20;99.90
19586;DHT22;9939;49.246;9.106;2022-10-16T14:56:20;21.20;99.90
19586;DHT22;9939;49.246;9.106;2022-10-16T14:58:49;21.30;99.90
19586;DHT22;9939;49.246;9.106;2022-10-16T15:01:17;21.20;99.90
19586;DHT22;9939;49.246;9.106;2022-10-16T15:03:45;21.20;99.90
19586;DHT22;9939;49.246;9.106;2022-10-16T15:06:14;21.10;99.90
19586;DHT22;9939;49.246;9.106;2022-10-16T15:08:42;21.10;99.90
19586;DHT22;9939;49.246;9.106;2022-10-16T15:11:14;20.90;99.90
19586;DHT22;9939;49.246;9.106;2022-10-16T15:13:42;20.70;99.90
19586;DHT22;9939;49.246;9.106;2022-10-16T15:16:16;20.60;99.90
19586;DHT22;9939;49.246;9.106;2022-10-16T15:18:44;20.50;99.90
19586;DHT22;9939;49.246;9.106;2022-10-16T15:21:25;20.60;99.90
19586;DHT22;9939;49.246;9.106;2022-10-16T15:23:53;20.70;99.90
19586;DHT22;9939;49.246;9.106;2022-10-16T15:26:20;21.00;99.90
19586;DHT22;9939;49.246;9.106;2022-10-16T15:28:47;21.40;99.90
19586;DHT22;9939;49.246;9.106;2022-10-16T15:31:14;21.80;99.90
19586;DHT22;9939;49.246;9.106;2022-10-16T15:33:41;22.30;99.90
19586;DHT22;9939;49.246;9.106;2022-10-16T15:36:09;22.40;99.90
19586;DHT22;9939;49.246;9.106;2022-10-16T15:38:36;22.50;99.90
19586;DHT22;9939;49.246;9.106;2022-10-16T15:41:03;22.50;99.90
19586;DHT22;9939;49.246;9.106;2022-10-16T15:43:30;22.30;99.90
19586;DHT22;9939;49.246;9.106;2022-10-16T15:46:05;22.00;99.90
19586;DHT22;9939;49.246;9.106;2022-10-16T15:48:33;21.70;99.90
19586;DHT22;9939;49.246;9.106;2022-10-16T15:51:04;21.30;99.90
19586;DHT22;9939;49.246;9.106;2022-10-16T15:53:31;21.00;99.90
19586;DHT22;9939;49.246;9.106;2022-10-16T15:56:05;20.70;99.90
19586;DHT22;9939;49.246;9.106;2022-10-16T15:58:32;20.50;99.90
19586;DHT22;9939;49.246;9.106;2022-10-16T16:01:01;20.40;99.90
19586;DHT22;9939;49.246;9.106;2022-10-16T16:03:28;20.40;99.90
19586;DHT22;9939;49.246;9.106;2022-10-16T16:05:56;20.30;99.90
19586;DHT22;9939;49.246;9.106;2022-10-16T16:08:23;20.20;99.90
19586;DHT22;9939;49.246;9.106;2022-10-16T16:11:04;19.90;99.90
19586;DHT22;9939;49.246;9.106;2022-10-16T16:13:32;19.60;99.90
19586;DHT22;9939;49.246;9.106;2022-10-16T16:15:59;19.30;99.90
19586;DHT22;9939;49.246;9.106;2022-10-16T16:18:26;19.10;99.90
19586;DHT22;9939;49.246;9.106;2022-10-16T16:20:55;19.10;99.90
19586;DHT22;9939;49.246;9.106;2022-10-16T16:23:22;19.00;99.90
19586;DHT22;9939;49.246;9.106;2022-10-16T16:28:49;18.80;99.90
19586;DHT22;9939;49.246;9.106;2022-10-16T16:31:16;18.50;99.90
19586;DHT22;9939;49.246;9.106;2022-10-16T16:33:43;18.40;99.90
19586;DHT22;9939;49.246;9.106;2022-10-16T16:36:10;18.20;99.90
19586;DHT22;9939;49.246;9.106;2022-10-16T16:38:41;18.00;99.90
19586;DHT22;9939;49.246;9.106;2022-10-16T16:41:28;18.10;99.90
19586;DHT22;9939;49.246;9.106;2022-10-16T16:44:05;18.20;99.90
19586;DHT22;9939;49.246;9.106;2022-10-16T16:46:34;18.00;99.90
19586;DHT22;9939;49.246;9.106;2022-10-16T16:49:02;17.80;99.90
19586;DHT22;9939;49.246;9.106;2022-10-16T16:51:29;17.50;99.90
19586;DHT22;9939;49.246;9.106;2022-10-16T16:53:56;17.30;99.90
19586;DHT22;9939;49.246;9.106;2022-10-16T16:56:25;17.10;99.90
19586;DHT22;9939;49.246;9.106;2022-10-16T16:58:54;16.90;99.90
19586;DHT22;9939;49.246;9.106;2022-10-16T17:01:23;16.80;99.90
19586;DHT22;9939;49.246;9.106;2022-10-16T17:03:51;16.70;99.90
19586;DHT22;9939;49.246;9.106;2022-10-16T17:06:21;16.60;99.90
19586;DHT22;9939;49.246;9.106;2022-10-16T17:08:49;16.40;99.90
19586;DHT22;9939;49.246;9.106;2022-10-16T17:11:25;16.50;99.90
19586;DHT22;9939;49.246;9.106;2022-10-16T17:13:54;16.50;99.90
19586;DHT22;9939;49.246;9.106;2022-10-16T17:16:26;16.40;99.90
19586;DHT22;9939;49.246;9.106;2022-10-16T17:18:54;16.20;99.90
19586;DHT22;9939;49.246;9.106;2022-10-16T17:21:21;16.10;99.90
19586;DHT22;9939;49.246;9.106;2022-10-16T17:23:51;16.00;99.90
19586;DHT22;9939;49.246;9.106;2022-10-16T17:26:19;15.90;99.90
19586;DHT22;9939;49.246;9.106;2022-10-16T17:28:49;15.80;99.90
19586;DHT22;9939;49.246;9.106;2022-10-16T17:31:25;15.90;99.90
19586;DHT22;9939;49.246;9.106;2022-10-16T17:33:53;15.80;99.90
19586;DHT22;9939;49.246;9.106;2022-10-16T17:36:20;15.80;99.90
19586;DHT22;9939;49.246;9.106;2022-10-16T17:38:47;15.70;99.90
19586;DHT22;9939;49.246;9.106;2022-10-16T17:41:22;15.60;99.90
19586;DHT22;9939;49.246;9.106;2022-10-16T17:43:50;15.60;99.90
19586;DHT22;9939;49.246;9.106;2022-10-16T17:46:20;15.50;99.90
19586;DHT22;9939;49.246;9.106;2022-10-16T17:48:50;15.50;99.90
19586;DHT22;9939;49.246;9.106;2022-10-16T17:51:25;15.50;99.90
19586;DHT22;9939;49.246;9.106;2022-10-16T17:53:55;15.60;99.90
19586;DHT22;9939;49.246;9.106;2022-10-16T17:56:23;15.60;99.90
19586;DHT22;9939;49.246;9.106;2022-10-16T17:58:52;15.40;99.90
19586;DHT22;9939;49.246;9.106;2022-10-16T18:01:22;15.40;99.90
19586;DHT22;9939;49.246;9.106;2022-10-16T18:03:52;15.30;99.90
19586;DHT22;9939;49.246;9.106;2022-10-16T18:06:20;15.40;99.90
19586;DHT22;9939;49.246;9.106;2022-10-16T18:08:50;15.30;99.90
19586;DHT22;9939;49.246;9.106;2022-10-16T18:11:18;15.30;99.90
19586;DHT22;9939;49.246;9.106;2022-10-16T18:13:45;15.20;99.90
19586;DHT22;9939;49.246;9.106;2022-10-16T18:16:14;15.10;99.90
19586;DHT22;9939;49.246;9.106;2022-10-16T18:18:42;15.00;99.90